Time;durP1;ratioP1;P1;durP2;ratioP2;P2;SDS_P1;SDS_P2;PMS_P1;PMS_P2;Temp;Humidity;BMP_temperature;BMP_pressure;BME280_temperature;BME280_humidity;BME280_pressure;Samples;Min_cycle;Max_cycle;Signal;HPM_P1;HPM_P2
2024/02/20 00:02:01;;;;;;;;;;;7.70;99.90;;;-146.41;100.00;57768.22;5076005;28;1838;-68
2024/02/20 00:04:29;;;;;;;;;;;7.70;99.90;;;-146.41;100.00;57768.22;5076915;28;1713;-68
2024/02/20 00:06:56;;;;;;;;;;;7.70;99.90;;;-146.41;100.00;57768.22;5075312;28;1647;-68
2024/02/20 00:09:23;;;;;;;;;;;7.70;99.90;;;-146.41;100.00;57768.22;5078751;28;1763;-69
2024/02/20 00:11:52;;;;;;;;;;;7.80;99.90;;;-146.41;100.00;57768.22;5076736;28;1987;-68
2024/02/20 00:14:18;;;;;;;;;;;7.80;99.90;;;-146.41;100.00;57768.22;5058026;28;1720;-68
2024/02/20 00:16:46;;;;;;;;;;;7.70;99.90;;;-146.41;100.00;57768.22;5060359;28;1709;-68
2024/02/20 00:19:13;;;;;;;;;;;7.70;99.90;;;-146.41;100.00;57768.22;5063358;28;1684;-68
2024/02/20 00:21:41;;;;;;;;;;;7.70;99.90;;;-146.41;100.00;57768.22;5062164;28;1870;-67
2024/02/20 00:24:08;;;;;;;;;;;7.70;99.90;;;-146.41;100.00;57768.22;5080684;28;1948;-68
2024/02/20 00:26:35;;;;;;;;;;;7.60;99.90;;;-146.41;100.00;57768.22;5047654;28;1863;-69
2024/02/20 00:29:02;;;;;;;;;;;7.50;99.90;;;-146.41;100.00;57768.22;5078262;28;2280;-68
2024/02/20 00:31:32;;;;;;;;;;;7.50;99.90;;;-146.41;100.00;57768.22;5063796;28;1993;-67
2024/02/20 00:34:00;;;;;;;;;;;7.40;99.90;;;-146.41;100.00;57768.22;5078891;28;1671;-68
2024/02/20 00:36:27;;;;;;;;;;;7.40;99.90;;;-146.41;100.00;57768.22;5078647;28;2001;-68
2024/02/20 00:38:57;;;;;;;;;;;7.20;99.90;;;-146.41;100.00;57768.22;5062860;28;1716;-68
2024/02/20 00:41:24;;;;;;;;;;;7.10;99.90;;;-146.41;100.00;57768.22;5047907;28;1932;-68
2024/02/20 00:43:51;;;;;;;;;;;7.10;99.90;;;-146.41;100.00;57768.22;5076757;28;1758;-68
2024/02/20 00:46:22;;;;;;;;;;;7.10;99.90;;;-146.41;100.00;57768.22;5076954;28;2216;-68
2024/02/20 00:48:50;;;;;;;;;;;7.00;99.90;;;-146.41;100.00;57768.22;5077472;28;1851;-68
2024/02/20 00:51:19;;;;;;;;;;;6.90;99.90;;;-146.41;100.00;57768.22;5075648;28;2008;-67
2024/02/20 00:53:46;;;;;;;;;;;6.80;99.90;;;-146.41;100.00;57768.22;5047135;28;1861;-68
2024/02/20 00:56:13;;;;;;;;;;;6.80;99.90;;;-146.41;100.00;57768.22;5076901;28;1667;-68
2024/02/20 00:58:44;;;;;;;;;;;6.70;99.90;;;-146.41;100.00;57768.22;5057585;28;1732;-68
2024/02/20 01:01:11;;;;;;;;;;;6.70;99.90;;;-146.41;100.00;57768.22;5062482;28;1915;-67
2024/02/20 01:03:39;;;;;;;;;;;6.60;99.90;;;-146.41;100.00;57768.22;5072299;28;1694;-67
2024/02/20 01:06:06;;;;;;;;;;;6.60;99.90;;;-146.41;100.00;57768.22;5062246;28;1759;-68
2024/02/20 01:08:37;;;;;;;;;;;6.60;99.90;;;-146.41;100.00;57768.22;5078725;28;2202;-68
2024/02/20 01:11:04;;;;;;;;;;;6.60;99.90;;;-146.41;100.00;57768.22;5078139;28;1898;-68
2024/02/20 01:13:32;;;;;;;;;;;6.50;99.90;;;-146.41;100.00;57768.22;5077648;28;1735;-67
2024/02/20 01:15:59;;;;;;;;;;;6.50;99.90;;;-146.41;100.00;57768.22;5078948;28;1992;-68
2024/02/20 01:18:26;;;;;;;;;;;6.60;99.90;;;-146.41;100.00;57768.22;5083373;28;1707;-68
2024/02/20 01:20:52;;;;;;;;;;;6.50;99.90;;;-146.41;100.00;57768.22;5082847;28;1766;-68
2024/02/20 01:23:19;;;;;;;;;;;6.50;99.90;;;-146.41;100.00;57768.22;5080606;28;1849;-67
2024/02/20 01:25:46;;;;;;;;;;;6.40;99.90;;;-146.41;100.00;57768.22;5077341;28;1807;-67
2024/02/20 01:28:13;;;;;;;;;;;6.40;99.90;;;-146.41;100.00;57768.22;5066034;28;1687;-67
2024/02/20 01:30:42;;;;;;;;;;;6.40;99.90;;;-146.41;100.00;57768.22;5080178;28;1910;-67
2024/02/20 01:33:09;;;;;;;;;;;6.30;99.90;;;-146.41;100.00;57768.22;5061488;28;1696;-67
2024/02/20 01:35:38;;;;;;;;;;;6.20;99.90;;;-146.41;100.00;57768.22;5061835;28;1699;-67
2024/02/20 01:38:05;;;;;;;;;;;6.20;99.90;;;-146.41;100.00;57768.22;5079118;28;1702;-68
2024/02/20 01:40:31;;;;;;;;;;;6.20;99.90;;;-146.41;100.00;57768.22;5079843;28;1839;-68
2024/02/20 01:43:00;;;;;;;;;;;6.20;99.90;;;-146.41;100.00;57768.22;5064277;28;1689;-66
2024/02/20 01:45:29;;;;;;;;;;;6.10;99.90;;;-146.41;100.00;57768.22;5067326;28;1629;-67
2024/02/20 01:47:56;;;;;;;;;;;6.10;99.90;;;-146.41;100.00;57768.22;5065112;28;1648;-67
2024/02/20 01:50:23;;;;;;;;;;;6.10;99.90;;;-146.41;100.00;57768.22;5078812;28;2278;-68
2024/02/20 01:52:51;;;;;;;;;;;6.10;99.90;;;-146.41;100.00;57768.22;5061497;28;2030;-66
2024/02/20 01:55:21;;;;;;;;;;;6.10;99.90;;;-146.41;100.00;57768.22;5079794;28;1714;-68
2024/02/20 01:57:48;;;;;;;;;;;6.00;99.90;;;-146.41;100.00;57768.22;5042215;28;1805;-66
2024/02/20 02:00:17;;;;;;;;;;;5.90;99.90;;;-146.41;100.00;57768.22;5065501;28;1724;-68
2024/02/20 02:02:45;;;;;;;;;;;5.90;99.90;;;-146.41;100.00;57768.22;5076777;28;1894;-67
2024/02/20 02:05:12;;;;;;;;;;;5.80;99.90;;;-146.41;100.00;57768.22;5060064;28;1836;-68
2024/02/20 02:07:40;;;;;;;;;;;5.70;99.90;;;-146.41;100.00;57768.22;5077482;28;1676;-68
2024/02/20 02:10:07;;;;;;;;;;;5.70;99.90;;;-146.41;100.00;57768.22;5075916;28;2216;-67
2024/02/20 02:12:35;;;;;;;;;;;5.70;99.90;;;-146.41;100.00;57768.22;5074351;28;2154;-67
2024/02/20 02:15:02;;;;;;;;;;;5.70;99.90;;;-146.41;100.00;57768.22;5074567;28;1746;-68
2024/02/20 02:17:29;;;;;;;;;;;5.70;99.90;;;-146.41;100.00;57768.22;5077286;28;1834;-67
2024/02/20 02:19:55;;;;;;;;;;;5.60;99.90;;;-146.41;100.00;57768.22;5080942;28;1656;-67
2024/02/20 02:22:22;;;;;;;;;;;5.50;99.90;;;-146.41;100.00;57768.22;5074879;28;1739;-67
2024/02/20 02:24:49;;;;;;;;;;;5.40;99.90;;;-146.41;100.00;57768.22;5061584;28;1737;-66
2024/02/20 02:27:16;;;;;;;;;;;5.20;99.90;;;-146.41;100.00;57768.22;5081267;28;1720;-66
2024/02/20 02:29:43;;;;;;;;;;;5.10;99.90;;;-146.41;100.00;57768.22;5078093;28;1774;-67
2024/02/20 02:32:09;;;;;;;;;;;4.90;99.90;;;-146.41;100.00;57768.22;5079178;28;1898;-67
2024/02/20 02:34:36;;;;;;;;;;;4.90;99.90;;;-146.41;100.00;57768.22;5064383;28;2059;-67
2024/02/20 02:37:03;;;;;;;;;;;4.90;99.90;;;-146.41;100.00;57768.22;5060083;28;1699;-66
2024/02/20 02:39:30;;;;;;;;;;;4.90;99.90;;;-146.41;100.00;57768.22;5060614;28;1684;-67
2024/02/20 02:41:57;;;;;;;;;;;4.80;99.90;;;-146.41;100.00;57768.22;5044613;28;1736;-67
2024/02/20 02:44:23;;;;;;;;;;;4.70;99.90;;;-146.41;100.00;57768.22;5076289;28;1815;-67
2024/02/20 02:46:50;;;;;;;;;;;4.60;99.90;;;-146.41;100.00;57768.22;5061256;28;1772;-67
2024/02/20 02:49:17;;;;;;;;;;;4.50;99.90;;;-146.41;100.00;57768.22;5077181;28;1887;-68
2024/02/20 02:51:44;;;;;;;;;;;4.40;99.90;;;-146.41;100.00;57768.22;5065316;28;2218;-67
2024/02/20 02:54:11;;;;;;;;;;;4.50;99.90;;;-146.41;100.00;57768.22;5081036;28;1713;-67
2024/02/20 02:56:38;;;;;;;;;;;4.50;99.90;;;-146.41;100.00;57768.22;5062147;28;1951;-68
2024/02/20 02:59:05;;;;;;;;;;;4.60;99.90;;;-146.41;100.00;57768.22;5079185;28;1622;-67
2024/02/20 03:01:32;;;;;;;;;;;4.60;99.90;;;-146.41;100.00;57768.22;5078211;28;1685;-67
2024/02/20 03:04:00;;;;;;;;;;;4.70;99.90;;;-146.41;100.00;57768.22;5058790;28;1755;-67
2024/02/20 03:06:27;;;;;;;;;;;4.60;99.90;;;-146.41;100.00;57768.22;5060081;28;2573;-68
2024/02/20 03:08:53;;;;;;;;;;;4.70;99.90;;;-146.41;100.00;57768.22;5077471;28;1712;-67
2024/02/20 03:11:20;;;;;;;;;;;4.60;99.90;;;-146.41;100.00;57768.22;5076363;28;1989;-66
2024/02/20 03:13:47;;;;;;;;;;;4.50;99.90;;;-146.41;100.00;57768.22;5076761;28;1763;-68
2024/02/20 03:16:15;;;;;;;;;;;4.60;99.90;;;-146.41;100.00;57768.22;5079427;28;2102;-68
2024/02/20 03:18:42;;;;;;;;;;;4.50;99.90;;;-146.41;100.00;57768.22;5080204;28;1729;-68
2024/02/20 03:21:09;;;;;;;;;;;4.50;99.90;;;-146.41;100.00;57768.22;5080075;28;1878;-67
2024/02/20 03:23:36;;;;;;;;;;;4.50;99.90;;;-146.41;100.00;57768.22;5079861;28;2285;-70
2024/02/20 03:26:03;;;;;;;;;;;4.50;99.90;;;-146.41;100.00;57768.22;5065231;28;1796;-67
2024/02/20 03:28:31;;;;;;;;;;;4.60;99.90;;;-146.41;100.00;57768.22;5076971;28;1685;-68
2024/02/20 03:30:58;;;;;;;;;;;4.80;99.90;;;-146.41;100.00;57768.22;5076870;28;1901;-68
2024/02/20 03:33:26;;;;;;;;;;;4.80;99.90;;;-146.41;100.00;57768.22;5078451;28;1804;-68
2024/02/20 03:35:53;;;;;;;;;;;4.90;99.90;;;-146.41;100.00;57768.22;5077253;28;1690;-67
2024/02/20 03:38:20;;;;;;;;;;;5.00;99.90;;;-146.41;100.00;57768.22;5060481;28;2040;-68
2024/02/20 03:40:48;;;;;;;;;;;5.10;99.90;;;-146.41;100.00;57768.22;5063929;28;1686;-68
2024/02/20 03:43:15;;;;;;;;;;;5.10;99.90;;;-146.41;100.00;57768.22;5043041;28;2204;-68
2024/02/20 03:45:42;;;;;;;;;;;5.10;99.90;;;-146.41;100.00;57768.22;5074608;28;2124;-68
2024/02/20 03:48:08;;;;;;;;;;;5.20;99.90;;;-146.41;100.00;57768.22;5078492;28;2067;-67
2024/02/20 03:50:35;;;;;;;;;;;5.10;99.90;;;-146.41;100.00;57768.22;5073869;28;1918;-67
2024/02/20 03:53:02;;;;;;;;;;;5.10;99.90;;;-146.41;100.00;57768.22;5078572;28;2009;-67
2024/02/20 03:55:33;;;;;;;;;;;5.10;99.90;;;-146.41;100.00;57768.22;5077498;28;1804;-67
2024/02/20 03:58:01;;;;;;;;;;;5.10;99.90;;;-146.41;100.00;57768.22;5075228;28;1673;-67
2024/02/20 04:00:28;;;;;;;;;;;5.10;99.90;;;-146.41;100.00;57768.22;5076297;28;1668;-68
2024/02/20 04:02:56;;;;;;;;;;;5.10;99.90;;;-146.41;100.00;57768.22;5055850;28;1688;-67
2024/02/20 04:05:23;;;;;;;;;;;5.10;99.90;;;-146.41;100.00;57768.22;5060324;28;1880;-67
2024/02/20 04:07:50;;;;;;;;;;;5.10;99.90;;;-146.41;100.00;57768.22;5076601;28;1767;-68
2024/02/20 04:10:17;;;;;;;;;;;5.10;99.90;;;-146.41;100.00;57768.22;5074295;28;1764;-68
2024/02/20 04:12:45;;;;;;;;;;;5.10;99.90;;;-146.41;100.00;57768.22;5073071;28;2024;-68
2024/02/20 04:15:13;;;;;;;;;;;5.00;99.90;;;-146.41;100.00;57768.22;5057562;28;1839;-68
2024/02/20 04:17:40;;;;;;;;;;;4.90;99.90;;;-146.41;100.00;57768.22;5078285;28;1653;-68
2024/02/20 04:20:08;;;;;;;;;;;4.80;99.90;;;-146.41;100.00;57768.22;5077131;28;1690;-68
2024/02/20 04:22:37;;;;;;;;;;;4.70;99.90;;;-146.41;100.00;57768.22;5074754;28;1820;-68
2024/02/20 04:25:05;;;;;;;;;;;4.60;99.90;;;-146.41;100.00;57768.22;5077962;28;1688;-67
2024/02/20 04:27:33;;;;;;;;;;;4.70;99.90;;;-146.41;100.00;57768.22;5076040;28;1696;-68
2024/02/20 04:30:00;;;;;;;;;;;4.60;99.90;;;-146.41;100.00;57768.22;5060412;28;1824;-68
2024/02/20 04:32:27;;;;;;;;;;;4.60;99.90;;;-146.41;100.00;57768.22;5058186;28;1922;-68
2024/02/20 04:34:54;;;;;;;;;;;4.60;99.90;;;-146.41;100.00;57768.22;5076244;28;1683;-68
2024/02/20 04:37:21;;;;;;;;;;;4.60;99.90;;;-146.41;100.00;57768.22;5075226;28;2223;-68
2024/02/20 04:39:48;;;;;;;;;;;4.70;99.90;;;-146.41;100.00;57768.22;5075333;28;1859;-67
2024/02/20 04:42:15;;;;;;;;;;;4.60;99.90;;;-146.41;100.00;57768.22;5077514;28;1684;-67
2024/02/20 04:44:42;;;;;;;;;;;4.60;99.90;;;-146.41;100.00;57768.22;5057906;28;2330;-67
2024/02/20 04:47:09;;;;;;;;;;;4.60;99.90;;;-146.41;100.00;57768.22;5060048;28;2010;-67
2024/02/20 04:49:36;;;;;;;;;;;4.50;99.90;;;-146.41;100.00;57768.22;5058858;28;1929;-67
2024/02/20 04:52:03;;;;;;;;;;;4.50;99.90;;;-146.41;100.00;57768.22;5062936;28;1993;-67
2024/02/20 04:54:30;;;;;;;;;;;4.50;99.90;;;-146.41;100.00;57768.22;5078746;28;1942;-68
2024/02/20 04:56:57;;;;;;;;;;;4.60;99.90;;;-146.41;100.00;57768.22;5077334;28;1716;-67
2024/02/20 04:59:24;;;;;;;;;;;4.60;99.90;;;-146.41;100.00;57768.22;5061238;28;1745;-66
2024/02/20 05:01:51;;;;;;;;;;;4.60;99.90;;;-146.41;100.00;57768.22;5076391;28;1661;-67
2024/02/20 05:04:18;;;;;;;;;;;4.60;99.90;;;-146.41;100.00;57768.22;5077158;28;1794;-67
2024/02/20 05:06:45;;;;;;;;;;;4.70;99.90;;;-146.41;100.00;57768.22;5078316;28;1914;-67
2024/02/20 05:09:14;;;;;;;;;;;4.60;99.90;;;-146.41;100.00;57768.22;5075933;28;1777;-67
2024/02/20 05:11:41;;;;;;;;;;;4.60;99.90;;;-146.41;100.00;57768.22;5078297;28;2041;-67
2024/02/20 05:14:08;;;;;;;;;;;4.60;99.90;;;-146.41;100.00;57768.22;5076095;28;1795;-67
2024/02/20 05:16:35;;;;;;;;;;;4.50;99.90;;;-146.41;100.00;57768.22;5060153;28;2159;-67
2024/02/20 05:19:02;;;;;;;;;;;4.60;99.90;;;-146.41;100.00;57768.22;5076331;28;1756;-68
2024/02/20 05:21:29;;;;;;;;;;;4.60;99.90;;;-146.41;100.00;57768.22;5075430;28;1730;-66
2024/02/20 05:23:56;;;;;;;;;;;4.50;99.90;;;-146.41;100.00;57768.22;5074332;28;1720;-68
2024/02/20 05:26:23;;;;;;;;;;;4.40;99.90;;;-146.41;100.00;57768.22;5078209;28;1644;-68
2024/02/20 05:28:49;;;;;;;;;;;4.40;99.90;;;-146.41;100.00;57768.22;5061485;28;1693;-66
2024/02/20 05:31:28;;;;;;;;;;;4.40;99.90;;;-146.41;100.00;57768.22;5082605;28;1652;-67
2024/02/20 05:33:56;;;;;;;;;;;4.40;99.90;;;-146.41;100.00;57768.22;5079266;28;1672;-67
2024/02/20 05:36:25;;;;;;;;;;;4.40;99.90;;;-146.41;100.00;57768.22;5075712;28;2180;-67
2024/02/20 05:38:59;;;;;;;;;;;4.40;99.90;;;-146.41;100.00;57768.22;5058744;28;1693;-67
2024/02/20 05:41:30;;;;;;;;;;;4.40;99.90;;;-146.41;100.00;57768.22;5073356;28;1673;-67
2024/02/20 05:43:58;;;;;;;;;;;4.40;99.90;;;-146.41;100.00;57768.22;5059755;28;2117;-67
2024/02/20 05:46:29;;;;;;;;;;;4.40;99.90;;;-146.41;100.00;57768.22;5077498;28;1664;-68
2024/02/20 05:48:57;;;;;;;;;;;4.50;99.90;;;-146.41;100.00;57768.22;5074147;28;1759;-66
2024/02/20 05:51:25;;;;;;;;;;;4.50;99.90;;;-146.41;100.00;57768.22;5075576;28;1737;-68
2024/02/20 05:53:52;;;;;;;;;;;4.50;99.90;;;-146.41;100.00;57768.22;5075980;28;2257;-67
2024/02/20 05:56:19;;;;;;;;;;;4.50;99.90;;;-146.41;100.00;57768.22;5074625;28;1923;-67
2024/02/20 05:58:46;;;;;;;;;;;4.50;99.90;;;-146.41;100.00;57768.22;5056644;28;1725;-67
2024/02/20 06:01:15;;;;;;;;;;;4.40;99.90;;;-146.41;100.00;57768.22;5058415;28;2249;-67
2024/02/20 06:03:43;;;;;;;;;;;4.30;99.90;;;-146.41;100.00;57768.22;5055749;28;1721;-67
2024/02/20 06:06:13;;;;;;;;;;;4.40;99.90;;;-146.41;100.00;57768.22;5062258;28;1690;-67
2024/02/20 06:08:47;;;;;;;;;;;4.40;99.90;;;-146.41;100.00;57768.22;5080252;28;1911;-66
2024/02/20 06:11:18;;;;;;;;;;;4.40;99.90;;;-146.41;100.00;57768.22;5077545;28;2138;-67
2024/02/20 06:13:45;;;;;;;;;;;4.40;99.90;;;-146.41;100.00;57768.22;5061325;28;1914;-67
2024/02/20 06:16:12;;;;;;;;;;;4.50;99.90;;;-146.41;100.00;57768.22;5078251;28;1938;-67
2024/02/20 06:18:40;;;;;;;;;;;4.50;99.90;;;-146.41;100.00;57768.22;5080036;28;1812;-68
2024/02/20 06:21:08;;;;;;;;;;;4.50;99.90;;;-146.41;100.00;57768.22;5080471;28;1735;-67
2024/02/20 06:23:39;;;;;;;;;;;4.50;99.90;;;-146.41;100.00;57768.22;5079222;28;1717;-67
2024/02/20 06:26:07;;;;;;;;;;;4.60;99.90;;;-146.41;100.00;57768.22;5079021;28;1716;-67
2024/02/20 06:28:38;;;;;;;;;;;4.70;99.90;;;-146.41;100.00;57768.22;5080528;28;2213;-68
2024/02/20 06:31:06;;;;;;;;;;;4.80;99.90;;;-146.41;100.00;57768.22;5075761;28;1653;-68
2024/02/20 06:33:34;;;;;;;;;;;4.70;99.90;;;-146.41;100.00;57768.22;5079983;28;1987;-68
2024/02/20 06:36:03;;;;;;;;;;;4.70;99.90;;;-146.41;100.00;57768.22;5067327;28;1674;-67
2024/02/20 06:38:33;;;;;;;;;;;4.70;99.90;;;-146.41;100.00;57768.22;5081184;28;2179;-67
2024/02/20 06:41:00;;;;;;;;;;;4.70;99.90;;;-146.41;100.00;57768.22;5064159;28;1789;-68
2024/02/20 06:43:27;;;;;;;;;;;4.70;99.90;;;-146.41;100.00;57768.22;5060728;28;1982;-67
2024/02/20 06:45:54;;;;;;;;;;;4.70;99.90;;;-146.41;100.00;57768.22;5076606;28;2165;-67
2024/02/20 06:48:22;;;;;;;;;;;4.80;99.90;;;-146.41;100.00;57768.22;5078370;28;1808;-67
2024/02/20 06:50:49;;;;;;;;;;;4.80;99.90;;;-146.41;100.00;57768.22;5078962;28;1907;-67
2024/02/20 06:53:15;;;;;;;;;;;4.80;99.90;;;-146.41;100.00;57768.22;5078624;28;2017;-68
2024/02/20 06:55:42;;;;;;;;;;;4.80;99.90;;;-146.41;100.00;57768.22;5075209;28;1705;-68
2024/02/20 06:58:09;;;;;;;;;;;4.90;99.90;;;-146.41;100.00;57768.22;5079937;28;1760;-67
2024/02/20 07:00:39;;;;;;;;;;;5.00;99.90;;;-146.41;100.00;57768.22;5075682;28;2281;-67
2024/02/20 07:03:06;;;;;;;;;;;5.00;99.90;;;-146.41;100.00;57768.22;5075684;28;1665;-67
2024/02/20 07:05:33;;;;;;;;;;;5.10;99.90;;;-146.41;100.00;57768.22;5076534;28;1880;-68
2024/02/20 07:08:01;;;;;;;;;;;5.10;99.90;;;-146.41;100.00;57768.22;5077468;28;1680;-68
2024/02/20 07:10:29;;;;;;;;;;;5.20;99.90;;;-146.41;100.00;57768.22;5065034;28;1820;-68
2024/02/20 07:12:57;;;;;;;;;;;5.20;99.90;;;-146.41;100.00;57768.22;5059486;28;1979;-67
2024/02/20 07:15:25;;;;;;;;;;;5.30;99.90;;;-146.41;100.00;57768.22;5078208;28;1927;-67
2024/02/20 07:17:52;;;;;;;;;;;5.30;99.90;;;-146.41;100.00;57768.22;5073700;28;1764;-67
2024/02/20 07:20:19;;;;;;;;;;;5.40;99.90;;;-146.41;100.00;57768.22;5078088;28;2067;-68
2024/02/20 07:22:46;;;;;;;;;;;5.40;99.90;;;-146.41;100.00;57768.22;5077285;28;1719;-67
2024/02/20 07:25:19;;;;;;;;;;;5.50;99.90;;;-146.41;100.00;57768.22;5066455;28;1768;-67
2024/02/20 07:27:46;;;;;;;;;;;5.40;99.90;;;-146.41;100.00;57768.22;5063705;28;1709;-67
2024/02/20 07:30:14;;;;;;;;;;;5.50;99.90;;;-146.41;100.00;57768.22;5077629;28;1864;-67
2024/02/20 07:32:41;;;;;;;;;;;5.50;99.90;;;-146.41;100.00;57768.22;5081513;28;1992;-67
2024/02/20 07:35:12;;;;;;;;;;;5.60;99.90;;;-146.41;100.00;57768.22;5078255;28;1770;-67
2024/02/20 07:37:40;;;;;;;;;;;5.60;99.90;;;-146.41;100.00;57768.22;5082855;28;1986;-67
2024/02/20 07:40:11;;;;;;;;;;;5.70;99.90;;;-146.41;100.00;57768.22;5068521;28;1752;-67
2024/02/20 07:42:39;;;;;;;;;;;5.70;99.90;;;-146.41;100.00;57768.22;5082719;28;1692;-68
2024/02/20 07:45:06;;;;;;;;;;;5.70;99.90;;;-146.41;100.00;57768.22;5085082;28;2182;-68
2024/02/20 07:47:34;;;;;;;;;;;5.70;99.90;;;-146.41;100.00;57768.22;5065789;28;1860;-67
2024/02/20 07:50:03;;;;;;;;;;;5.90;99.90;;;-146.41;100.00;57768.22;5075823;28;1725;-67
2024/02/20 07:52:31;;;;;;;;;;;5.90;99.90;;;-146.41;100.00;57768.22;5062293;28;1906;-67
2024/02/20 07:54:58;;;;;;;;;;;6.00;99.90;;;-146.41;100.00;57768.22;5078204;28;1762;-68
2024/02/20 07:57:25;;;;;;;;;;;5.90;99.90;;;-146.41;100.00;57768.22;5075537;28;1725;-67
2024/02/20 07:59:53;;;;;;;;;;;6.00;99.90;;;-146.41;100.00;57768.22;5061300;28;1783;-68
2024/02/20 08:02:20;;;;;;;;;;;6.10;99.90;;;-146.41;100.00;57768.22;5073048;28;1701;-67
2024/02/20 08:04:46;;;;;;;;;;;6.10;99.90;;;-146.41;100.00;57768.22;5061137;28;1674;-67
2024/02/20 08:07:13;;;;;;;;;;;6.20;99.90;;;-146.41;100.00;57768.22;5073506;28;1737;-68
2024/02/20 08:09:41;;;;;;;;;;;6.40;99.90;;;-146.41;100.00;57768.22;5079050;28;1950;-68
2024/02/20 08:12:08;;;;;;;;;;;6.70;99.90;;;-146.41;100.00;57768.22;5076341;28;1925;-67
2024/02/20 08:14:35;;;;;;;;;;;6.90;99.90;;;-146.41;100.00;57768.22;5077208;28;1789;-68
2024/02/20 08:17:02;;;;;;;;;;;7.00;99.90;;;-146.41;100.00;57768.22;5078566;28;1652;-68
2024/02/20 08:19:29;;;;;;;;;;;7.30;99.90;;;-146.41;100.00;57768.22;5077738;28;1879;-68
2024/02/20 08:21:56;;;;;;;;;;;7.50;99.90;;;-146.41;100.00;57768.22;5078509;28;1732;-68
2024/02/20 08:24:23;;;;;;;;;;;7.60;99.90;;;-146.41;100.00;57768.22;5076287;28;1867;-67
2024/02/20 08:26:50;;;;;;;;;;;7.60;99.90;;;-146.41;100.00;57768.22;5063977;28;1777;-69
2024/02/20 08:29:17;;;;;;;;;;;;;;;-146.41;100.00;57768.22;5076434;28;2126;-68
2024/02/20 08:31:44;;;;;;;;;;;8.00;99.90;;;-146.41;100.00;57768.22;5065708;28;2199;-69
2024/02/20 08:34:11;;;;;;;;;;;8.30;99.90;;;-146.41;100.00;57768.22;5074713;28;1902;-69
2024/02/20 08:36:39;;;;;;;;;;;8.40;99.90;;;-146.41;100.00;57768.22;5078352;28;1927;-68
2024/02/20 08:39:06;;;;;;;;;;;8.50;99.90;;;-146.41;100.00;57768.22;5078752;28;1680;-69
2024/02/20 08:41:33;;;;;;;;;;;8.50;99.90;;;-146.41;100.00;57768.22;5077274;28;1699;-68
2024/02/20 08:44:01;;;;;;;;;;;8.40;99.90;;;-146.41;100.00;57768.22;5077299;28;1665;-69
2024/02/20 08:46:32;;;;;;;;;;;8.40;99.90;;;-146.41;100.00;57768.22;5061377;28;2255;-69
2024/02/20 08:48:58;;;;;;;;;;;8.30;99.90;;;-146.41;100.00;57768.22;5061584;28;1837;-68
2024/02/20 08:51:25;;;;;;;;;;;8.10;99.90;;;-146.41;100.00;57768.22;5061384;28;1730;-68
2024/02/20 08:53:52;;;;;;;;;;;7.90;99.90;;;-146.41;100.00;57768.22;5077997;28;2080;-68
2024/02/20 08:56:20;;;;;;;;;;;7.70;99.90;;;-146.41;100.00;57768.22;5077911;28;1915;-68
2024/02/20 08:58:51;;;;;;;;;;;7.60;99.90;;;-146.41;100.00;57768.22;5071660;28;1744;-68
2024/02/20 09:01:18;;;;;;;;;;;7.70;99.90;;;-146.41;100.00;57768.22;5072377;28;1819;-68
2024/02/20 09:03:46;;;;;;;;;;;7.50;99.90;;;-146.41;100.00;57768.22;5075842;28;2306;-68
2024/02/20 09:06:13;;;;;;;;;;;7.50;99.90;;;-146.41;100.00;57768.22;5076025;28;2029;-68
2024/02/20 09:08:40;;;;;;;;;;;;;;;-146.41;100.00;57768.22;5077691;28;1700;-67
2024/02/20 09:11:07;;;;;;;;;;;7.70;99.90;;;-146.41;100.00;57768.22;5063746;28;1831;-68
2024/02/20 09:13:35;;;;;;;;;;;7.60;99.90;;;-146.41;100.00;57768.22;5075681;28;1918;-68
2024/02/20 09:16:02;;;;;;;;;;;7.90;99.90;;;-146.41;100.00;57768.22;5062522;28;1800;-68
2024/02/20 09:18:33;;;;;;;;;;;7.90;99.90;;;-146.41;100.00;57768.22;5076179;28;1911;-68
2024/02/20 09:21:01;;;;;;;;;;;7.90;99.90;;;-146.41;100.00;57768.22;5076426;28;1772;-67
2024/02/20 09:23:28;;;;;;;;;;;8.10;99.90;;;-146.41;100.00;57768.22;5078410;28;1876;-67
2024/02/20 09:25:54;;;;;;;;;;;8.20;99.90;;;-146.41;100.00;57768.22;5078245;28;1752;-68
2024/02/20 09:28:21;;;;;;;;;;;8.00;99.90;;;-146.41;100.00;57768.22;5057238;28;2022;-68
2024/02/20 09:30:48;;;;;;;;;;;8.00;99.90;;;-146.41;100.00;57768.22;5077518;28;1723;-68
2024/02/20 09:33:18;;;;;;;;;;;8.00;99.90;;;-146.41;100.00;57768.22;5058994;28;1987;-68
2024/02/20 09:35:45;;;;;;;;;;;8.00;99.90;;;-146.41;100.00;57768.22;5077388;28;1935;-68
2024/02/20 09:38:13;;;;;;;;;;;8.20;99.90;;;-146.41;100.00;57768.22;5075999;28;1926;-68
2024/02/20 09:40:40;;;;;;;;;;;8.40;99.90;;;-146.41;100.00;57768.22;5080856;28;1864;-68
2024/02/20 09:43:08;;;;;;;;;;;8.50;99.90;;;-146.41;100.00;57768.22;5078980;28;1752;-68
2024/02/20 09:45:40;;;;;;;;;;;8.50;99.90;;;-146.41;100.00;57768.22;5079242;28;1745;-68
2024/02/20 09:48:09;;;;;;;;;;;8.70;99.90;;;-146.41;100.00;57768.22;5060960;28;1706;-68
2024/02/20 09:50:39;;;;;;;;;;;8.70;99.90;;;-146.41;100.00;57768.22;5081376;28;1999;-68
2024/02/20 09:53:07;;;;;;;;;;;8.50;99.90;;;-146.41;100.00;57768.22;5083472;28;1902;-68
2024/02/20 09:55:33;;;;;;;;;;;8.60;99.90;;;-146.41;100.00;57768.22;5065452;28;1782;-68
2024/02/20 09:58:01;;;;;;;;;;;8.60;99.90;;;-146.41;100.00;57768.22;5086159;28;2286;-68
2024/02/20 10:00:28;;;;;;;;;;;8.80;99.90;;;-146.41;100.00;57768.22;5081016;28;1867;-68
2024/02/20 10:02:56;;;;;;;;;;;8.50;99.90;;;-146.41;100.00;57768.22;5079112;28;1839;-68
2024/02/20 10:05:24;;;;;;;;;;;8.40;99.90;;;-146.41;100.00;57768.22;5078842;28;1994;-69
2024/02/20 10:07:59;;;;;;;;;;;8.40;99.90;;;-146.41;100.00;57768.22;5028310;28;1786;-68
2024/02/20 10:10:28;;;;;;;;;;;8.60;99.90;;;-146.41;100.00;57768.22;5064167;28;2208;-68
2024/02/20 10:13:02;;;;;;;;;;;8.70;99.90;;;-146.41;100.00;57768.22;5079851;28;1979;-68
2024/02/20 10:15:29;;;;;;;;;;;8.80;99.90;;;-146.41;100.00;57768.22;5064589;28;1867;-68
2024/02/20 10:18:00;;;;;;;;;;;8.60;99.90;;;-146.41;100.00;57768.22;5047155;28;2235;-68
2024/02/20 10:20:29;;;;;;;;;;;8.60;99.90;;;-146.41;100.00;57768.22;5074657;28;1934;-69
2024/02/20 10:23:04;;;;;;;;;;;8.50;99.90;;;-146.41;100.00;57768.22;5075849;28;1855;-69
2024/02/20 10:25:31;;;;;;;;;;;8.60;99.90;;;-146.41;100.00;57768.22;5080997;28;1761;-68
2024/02/20 10:27:58;;;;;;;;;;;8.80;99.90;;;-146.41;100.00;57768.22;5079385;28;1665;-68
2024/02/20 10:30:29;;;;;;;;;;;8.80;99.90;;;-146.41;100.00;57768.22;5063933;28;1881;-68
2024/02/20 10:32:57;;;;;;;;;;;8.90;99.90;;;-146.41;100.00;57768.22;5063182;28;1979;-67
2024/02/20 10:35:25;;;;;;;;;;;9.10;99.90;;;-146.41;100.00;57768.22;5061293;28;1653;-68
2024/02/20 10:38:01;;;;;;;;;;;9.00;99.90;;;-146.41;100.00;57768.22;5063431;28;1741;-68
2024/02/20 10:40:28;;;;;;;;;;;9.00;99.90;;;-146.41;100.00;57768.22;5059493;28;1689;-67
2024/02/20 10:42:56;;;;;;;;;;;9.00;99.90;;;-146.41;100.00;57768.22;5063863;28;1720;-68
2024/02/20 10:45:27;;;;;;;;;;;9.00;99.90;;;-146.41;100.00;57768.22;5081055;28;1868;-68
2024/02/20 10:47:58;;;;;;;;;;;8.90;99.90;;;-146.41;100.00;57768.22;5067566;28;1752;-68
2024/02/20 10:50:27;;;;;;;;;;;8.80;99.90;;;-146.41;100.00;57768.22;5079433;28;1923;-68
2024/02/20 10:52:57;;;;;;;;;;;8.90;99.90;;;-146.41;100.00;57768.22;5063614;28;1953;-68
2024/02/20 10:55:24;;;;;;;;;;;8.90;99.90;;;-146.41;100.00;57768.22;5081541;28;1740;-68
2024/02/20 10:58:01;;;;;;;;;;;9.00;99.90;;;-146.41;100.00;57768.22;5077610;28;1714;-67
2024/02/20 11:00:32;;;;;;;;;;;9.00;99.90;;;-146.41;100.00;57768.22;5083741;28;1811;-68
2024/02/20 11:02:59;;;;;;;;;;;9.20;99.90;;;-146.41;100.00;57768.22;5061690;28;1801;-68
2024/02/20 11:05:29;;;;;;;;;;;9.10;99.90;;;-146.41;100.00;57768.22;5076672;28;1923;-68
2024/02/20 11:08:05;;;;;;;;;;;9.20;99.90;;;-146.41;100.00;57768.22;5080825;28;1700;-68
2024/02/20 11:10:35;;;;;;;;;;;9.30;99.90;;;-146.41;100.00;57768.22;5062164;28;1935;-68
2024/02/20 11:13:22;;;;;;;;;;;9.30;99.90;;;-146.41;100.00;57768.22;5081023;28;2017;-68